createdAt,value
2017-08-02T00:01:10.350Z,4.93
2017-08-02T00:03:37.793Z,5.93
2017-08-02T00:06:05.251Z,6.10
2017-08-02T00:08:32.687Z,6.27
2017-08-02T00:11:00.124Z,6.30
2017-08-02T00:13:28.418Z,5.70
2017-08-02T00:15:55.849Z,5.10
2017-08-02T00:18:23.340Z,6.50
2017-08-02T00:20:50.796Z,6.40
2017-08-02T00:23:18.247Z,5.63
2017-08-02T00:25:45.698Z,5.83
2017-08-02T00:28:13.135Z,6.13
2017-08-02T00:30:40.691Z,6.00
2017-08-02T00:33:08.241Z,6.63
2017-08-02T00:35:36.457Z,6.10
2017-08-02T00:38:03.915Z,6.00
2017-08-02T00:40:31.379Z,6.67
2017-08-02T00:42:58.819Z,6.20
2017-08-02T00:45:26.320Z,6.20
2017-08-02T00:47:54.546Z,6.40
2017-08-02T00:50:22.000Z,6.30
2017-08-02T00:52:49.488Z,6.13
2017-08-02T00:55:16.936Z,6.03
2017-08-02T00:57:44.380Z,6.67
2017-08-02T01:00:11.847Z,6.50
2017-08-02T01:02:39.279Z,5.80
2017-08-02T01:05:06.731Z,5.20
2017-08-02T01:07:34.171Z,5.07
2017-08-02T01:10:01.644Z,5.10
2017-08-02T01:12:29.084Z,5.80
2017-08-02T01:14:56.581Z,5.70
2017-08-02T01:17:24.044Z,5.20
2017-08-02T01:19:52.288Z,6.13
2017-08-02T01:22:19.753Z,5.00
2017-08-02T01:24:47.204Z,5.40
2017-08-02T01:27:14.639Z,4.90
2017-08-02T01:29:42.092Z,5.30
2017-08-02T01:32:09.527Z,6.10
2017-08-02T01:34:37.029Z,6.30
2017-08-02T01:37:04.460Z,6.53
2017-08-02T01:39:32.051Z,6.10
2017-08-02T01:42:00.247Z,6.53
2017-08-02T01:44:28.432Z,6.60
2017-08-02T01:46:55.904Z,6.27
2017-08-02T01:49:23.356Z,5.90
2017-08-02T01:51:50.784Z,6.77
2017-08-02T01:54:18.262Z,6.47
2017-08-02T01:56:45.700Z,7.00
2017-08-02T01:59:13.158Z,6.67
2017-08-02T02:01:40.636Z,6.87
2017-08-02T02:04:08.073Z,7.43
2017-08-02T02:06:35.552Z,6.40
2017-08-02T02:09:03.000Z,7.63
2017-08-02T02:11:30.464Z,6.10
2017-08-02T02:13:57.937Z,6.97
2017-08-02T02:16:25.371Z,6.40
2017-08-02T02:18:53.429Z,7.10
2017-08-02T02:21:20.880Z,6.90
2017-08-02T02:23:48.401Z,6.83
2017-08-02T02:26:15.847Z,6.93
2017-08-02T02:28:43.284Z,7.40
2017-08-02T02:31:11.505Z,6.53
2017-08-02T02:33:38.935Z,6.80
2017-08-02T02:36:06.392Z,7.20
2017-08-02T02:38:33.899Z,6.90
2017-08-02T02:41:02.128Z,7.00
2017-08-02T02:43:29.587Z,7.33
2017-08-02T02:45:57.016Z,7.00
2017-08-02T02:48:24.467Z,7.13
2017-08-02T02:50:51.919Z,8.23
2017-08-02T02:53:19.399Z,7.70
2017-08-02T02:55:46.894Z,7.83
2017-08-02T02:58:15.100Z,7.43
2017-08-02T03:00:42.561Z,8.40
2017-08-02T03:03:10.024Z,8.40
2017-08-02T03:05:37.536Z,7.40
2017-08-02T03:08:05.737Z,8.87
2017-08-02T03:10:33.188Z,9.00
2017-08-02T03:13:00.649Z,8.77
2017-08-02T03:15:28.167Z,8.67
2017-08-02T03:17:56.374Z,8.77
2017-08-02T03:20:23.879Z,9.27
2017-08-02T03:22:51.460Z,9.07
2017-08-02T03:25:20.513Z,8.73
2017-08-02T03:27:47.984Z,8.30
2017-08-02T03:30:15.448Z,8.37
2017-08-02T03:32:42.915Z,9.33
2017-08-02T03:35:10.351Z,8.10
2017-08-02T03:37:37.939Z,8.40
2017-08-02T03:40:05.521Z,9.20
2017-08-02T03:42:32.981Z,8.83
2017-08-02T03:45:00.451Z,9.40
2017-08-02T03:47:27.904Z,9.40
2017-08-02T03:49:55.342Z,8.60
2017-08-02T03:52:22.816Z,9.77
2017-08-02T03:54:50.257Z,8.87
2017-08-02T03:57:17.692Z,9.33
2017-08-02T03:59:45.207Z,10.27
2017-08-02T04:02:13.431Z,8.73
2017-08-02T04:04:40.900Z,9.60
2017-08-02T04:07:08.339Z,10.00
2017-08-02T04:09:35.800Z,9.60
2017-08-02T04:12:03.267Z,8.93
2017-08-02T04:14:30.736Z,9.60
2017-08-02T04:16:58.196Z,8.80
2017-08-02T04:19:25.640Z,8.40
2017-08-02T04:21:53.095Z,8.90
2017-08-02T04:24:20.540Z,8.63
2017-08-02T04:26:48.001Z,9.10
2017-08-02T04:29:15.449Z,8.67
2017-08-02T04:31:42.883Z,11.70
2017-08-02T04:34:10.450Z,9.07
2017-08-02T04:36:37.904Z,9.43
2017-08-02T04:39:05.380Z,9.40
2017-08-02T04:41:32.833Z,9.50
2017-08-02T04:44:01.166Z,8.80
2017-08-02T04:46:28.775Z,9.63
2017-08-02T04:48:56.334Z,8.60
2017-08-02T04:51:24.576Z,9.57
2017-08-02T04:53:52.020Z,8.70
2017-08-02T04:56:19.474Z,9.37
2017-08-02T04:58:46.931Z,9.43
2017-08-02T05:01:14.395Z,8.60
2017-08-02T05:03:41.824Z,9.20
2017-08-02T05:06:09.307Z,8.67
2017-08-02T05:08:36.768Z,8.83
2017-08-02T05:11:04.312Z,8.63
2017-08-02T05:13:31.787Z,9.20
2017-08-02T05:15:59.229Z,8.40
2017-08-02T05:18:26.692Z,8.57
2017-08-02T05:20:54.907Z,9.20
2017-08-02T05:23:22.364Z,7.90
2017-08-02T05:25:49.824Z,7.83
2017-08-02T05:28:17.272Z,8.83
2017-08-02T05:30:44.736Z,8.40
2017-08-02T05:33:12.188Z,8.60
2017-08-02T05:35:39.645Z,7.50
2017-08-02T05:38:07.103Z,7.70
2017-08-02T05:40:34.548Z,8.40
2017-08-02T05:43:02.024Z,8.30
2017-08-02T05:45:29.463Z,8.37
2017-08-02T05:47:56.924Z,7.87
2017-08-02T05:50:24.367Z,9.10
2017-08-02T05:52:51.811Z,8.43
2017-08-02T05:55:19.274Z,8.43
2017-08-02T05:57:46.717Z,7.80
2017-08-02T06:00:14.197Z,6.50
2017-08-02T06:02:41.664Z,8.10
2017-08-02T06:05:09.144Z,6.60
2017-08-02T06:07:37.351Z,6.80
2017-08-02T06:10:04.781Z,7.50
2017-08-02T06:12:32.259Z,7.30
2017-08-02T06:14:59.832Z,6.60
2017-08-02T06:17:27.279Z,7.93
2017-08-02T06:19:54.732Z,7.73
2017-08-02T06:22:22.188Z,7.27
2017-08-02T06:24:49.665Z,7.93
2017-08-02T06:27:17.113Z,8.27
2017-08-02T06:29:44.705Z,7.20
2017-08-02T06:32:12.932Z,7.13
2017-08-02T06:34:40.411Z,9.10
2017-08-02T06:37:07.845Z,8.77
2017-08-02T06:39:35.285Z,8.60
2017-08-02T06:42:02.743Z,9.23
2017-08-02T06:44:30.184Z,8.70
2017-08-02T06:46:57.669Z,8.63
2017-08-02T06:49:25.106Z,8.17
2017-08-02T06:51:52.560Z,8.53
2017-08-02T06:54:19.994Z,8.73
2017-08-02T06:56:47.460Z,8.50
2017-08-02T06:59:14.935Z,7.10
2017-08-02T07:01:42.367Z,7.23
2017-08-02T07:04:09.804Z,6.80
2017-08-02T07:06:37.249Z,6.37
2017-08-02T07:09:04.688Z,5.87
2017-08-02T07:11:32.919Z,5.00
2017-08-02T07:14:00.388Z,4.70
2017-08-02T07:16:27.901Z,5.27
2017-08-02T07:18:55.337Z,5.30
2017-08-02T07:21:22.779Z,6.13
2017-08-02T07:23:51.028Z,5.63
2017-08-02T07:26:18.459Z,4.73
2017-08-02T07:28:45.934Z,5.80
2017-08-02T07:31:13.364Z,5.57
2017-08-02T07:33:40.819Z,4.90
2017-08-02T07:36:08.268Z,4.93
2017-08-02T07:38:35.705Z,4.70
2017-08-02T07:41:03.195Z,5.00
2017-08-02T07:43:30.633Z,4.70
2017-08-02T07:45:58.095Z,5.30
2017-08-02T07:48:26.364Z,4.60
2017-08-02T07:50:53.794Z,5.70
2017-08-02T07:53:21.255Z,5.77
2017-08-02T07:55:48.693Z,6.47
2017-08-02T07:58:17.322Z,6.73
2017-08-02T08:00:44.749Z,6.17
2017-08-02T08:03:12.198Z,5.33
2017-08-02T08:05:39.665Z,5.70
2017-08-02T08:08:07.118Z,5.70
2017-08-02T08:10:34.589Z,5.00
2017-08-02T08:13:02.019Z,4.60
2017-08-02T08:15:29.490Z,5.20
2017-08-02T08:17:56.959Z,4.63
2017-08-02T08:20:24.399Z,4.80
2017-08-02T08:22:51.849Z,4.47
2017-08-02T08:25:19.299Z,4.20
2017-08-02T08:27:46.752Z,4.27
2017-08-02T08:30:14.198Z,4.63
2017-08-02T08:32:41.660Z,4.00
2017-08-02T08:35:09.184Z,4.10
2017-08-02T08:37:36.703Z,4.13
2017-08-02T08:40:04.904Z,3.70
2017-08-02T08:42:32.364Z,3.60
2017-08-02T08:44:59.799Z,3.63
2017-08-02T08:47:27.265Z,3.80
2017-08-02T08:49:54.701Z,3.93
2017-08-02T08:52:22.936Z,3.50
2017-08-02T08:54:50.902Z,3.27
2017-08-02T08:57:18.467Z,3.30
2017-08-02T08:59:45.902Z,3.60
2017-08-02T09:02:13.359Z,3.57
2017-08-02T09:04:40.816Z,3.70
2017-08-02T09:07:08.323Z,4.20
2017-08-02T09:09:35.767Z,3.17
2017-08-02T09:12:03.215Z,4.17
2017-08-02T09:14:31.455Z,3.30
2017-08-02T09:16:58.894Z,3.33
2017-08-02T09:19:26.344Z,3.60
2017-08-02T09:21:53.833Z,3.73
2017-08-02T09:24:21.265Z,3.40
2017-08-02T09:26:48.692Z,3.60
2017-08-02T09:29:16.148Z,3.50
2017-08-02T09:31:43.627Z,2.93
2017-08-02T09:34:11.080Z,3.63
2017-08-02T09:36:38.515Z,3.20
2017-08-02T09:39:05.965Z,2.93
2017-08-02T09:41:33.420Z,3.43
2017-08-02T09:44:00.878Z,4.30
2017-08-02T09:46:28.315Z,3.33
2017-08-02T09:48:55.780Z,3.23
2017-08-02T09:51:23.216Z,3.80
2017-08-02T09:53:50.679Z,3.33
2017-08-02T09:56:18.116Z,3.80
2017-08-02T09:58:45.614Z,3.20
2017-08-02T10:01:13.073Z,4.20
2017-08-02T10:03:40.506Z,3.30
2017-08-02T10:06:07.968Z,3.33
2017-08-02T10:08:35.399Z,3.40
2017-08-02T10:11:02.859Z,3.40
2017-08-02T10:13:30.313Z,3.30
2017-08-02T10:15:57.744Z,3.27
2017-08-02T10:18:25.201Z,3.93
2017-08-02T10:20:52.636Z,3.37
2017-08-02T10:23:20.863Z,3.03
2017-08-02T10:25:48.307Z,3.10
2017-08-02T10:28:15.735Z,3.13
2017-08-02T10:30:43.259Z,3.43
2017-08-02T10:33:11.455Z,3.30
2017-08-02T10:35:38.916Z,3.20
2017-08-02T10:38:06.374Z,3.80
2017-08-02T10:40:34.775Z,2.97
2017-08-02T10:43:02.208Z,3.53
2017-08-02T10:45:29.639Z,3.30
2017-08-02T10:47:57.135Z,3.10
2017-08-02T10:50:24.580Z,2.80
2017-08-02T10:52:52.043Z,3.20
2017-08-02T10:55:19.508Z,3.33
2017-08-02T10:57:46.984Z,2.60
2017-08-02T11:00:14.428Z,2.90
2017-08-02T11:02:41.885Z,2.77
2017-08-02T11:05:09.317Z,3.17
2017-08-02T11:07:36.780Z,2.80
2017-08-02T11:10:04.231Z,3.20
2017-08-02T11:12:31.679Z,3.40
2017-08-02T11:14:59.122Z,2.47
2017-08-02T11:17:26.577Z,2.80
2017-08-02T11:19:54.028Z,3.43
2017-08-02T11:22:21.472Z,3.10
2017-08-02T11:24:48.923Z,3.13
2017-08-02T11:27:16.364Z,3.00
2017-08-02T11:29:43.822Z,3.37
2017-08-02T11:32:11.250Z,3.17
2017-08-02T11:34:39.479Z,2.90
2017-08-02T11:37:06.939Z,3.30
2017-08-02T11:39:34.391Z,3.90
2017-08-02T11:42:01.832Z,3.37
2017-08-02T11:44:29.307Z,4.30
2017-08-02T11:46:56.743Z,3.60
2017-08-02T11:49:24.200Z,3.87
2017-08-02T11:51:51.637Z,3.57
2017-08-02T11:54:19.089Z,3.40
2017-08-02T11:56:46.539Z,3.50
2017-08-02T11:59:13.986Z,3.70
2017-08-02T12:01:41.432Z,3.93
2017-08-02T12:04:08.983Z,3.37
2017-08-02T12:06:36.475Z,3.30
2017-08-02T12:09:03.971Z,4.17
2017-08-02T12:11:32.207Z,3.80
2017-08-02T12:13:59.655Z,3.17
2017-08-02T12:16:27.100Z,3.30
2017-08-02T12:18:54.553Z,3.67
2017-08-02T12:21:22.020Z,3.10
2017-08-02T12:23:49.496Z,3.03
2017-08-02T12:26:16.934Z,2.80
2017-08-02T12:28:44.392Z,2.90
2017-08-02T12:31:11.845Z,3.27
2017-08-02T12:33:39.284Z,3.20
2017-08-02T12:36:06.740Z,2.93
2017-08-02T12:38:34.207Z,2.77
2017-08-02T12:41:01.655Z,3.30
2017-08-02T12:43:29.088Z,3.27
2017-08-02T12:45:56.540Z,3.33
2017-08-02T12:48:23.995Z,3.13
2017-08-02T12:50:51.445Z,3.03
2017-08-02T12:53:19.572Z,3.27
2017-08-02T12:55:47.788Z,3.37
2017-08-02T12:58:15.333Z,3.37
2017-08-02T13:00:42.914Z,2.97
2017-08-02T13:03:10.359Z,3.10
2017-08-02T13:05:37.800Z,3.10
2017-08-02T13:08:05.276Z,3.23
2017-08-02T13:10:32.731Z,3.50
2017-08-02T13:13:00.209Z,3.10
2017-08-02T13:15:27.688Z,2.97
2017-08-02T13:17:56.287Z,2.83
2017-08-02T13:20:23.728Z,3.43
2017-08-02T13:22:51.192Z,3.63
2017-08-02T13:25:18.628Z,3.10
2017-08-02T13:27:46.824Z,3.70
2017-08-02T13:30:14.273Z,3.43
2017-08-02T13:32:41.709Z,3.03
2017-08-02T13:35:09.922Z,2.93
2017-08-02T13:37:37.376Z,2.90
2017-08-02T13:40:04.809Z,2.97
2017-08-02T13:42:32.307Z,3.20
2017-08-02T13:44:59.770Z,2.90
2017-08-02T13:47:27.203Z,2.90
2017-08-02T13:49:54.660Z,3.37
2017-08-02T13:52:22.123Z,3.00
2017-08-02T13:54:49.563Z,3.33
2017-08-02T13:57:16.992Z,3.43
2017-08-02T13:59:45.323Z,3.00
2017-08-02T14:02:12.862Z,3.33
2017-08-02T14:04:40.311Z,3.30
2017-08-02T14:07:07.752Z,3.03
2017-08-02T14:09:35.197Z,3.23
2017-08-02T14:12:02.651Z,3.13
2017-08-02T14:14:30.117Z,3.27
2017-08-02T14:16:57.574Z,3.03
2017-08-02T14:19:25.080Z,3.20
2017-08-02T14:21:52.636Z,3.30
2017-08-02T14:24:20.842Z,3.13
2017-08-02T14:26:48.276Z,3.90
2017-08-02T14:29:15.768Z,3.87
2017-08-02T14:31:43.216Z,3.13
2017-08-02T14:34:11.021Z,3.80
2017-08-02T14:36:38.456Z,3.80
2017-08-02T14:39:05.908Z,4.57
2017-08-02T14:41:33.341Z,3.00
2017-08-02T14:44:00.799Z,3.50
2017-08-02T14:46:28.256Z,2.97
2017-08-02T14:48:55.696Z,3.60
2017-08-02T14:51:23.155Z,3.30
2017-08-02T14:53:50.593Z,4.07
2017-08-02T14:56:18.044Z,3.80
2017-08-02T14:58:45.485Z,3.63
2017-08-02T15:01:12.957Z,3.27
2017-08-02T15:03:40.393Z,3.47
2017-08-02T15:06:07.849Z,3.40
2017-08-02T15:08:35.332Z,2.90
2017-08-02T15:11:02.764Z,3.37
2017-08-02T15:13:30.233Z,3.43
2017-08-02T15:15:57.671Z,3.37
2017-08-02T15:18:25.106Z,3.40
2017-08-02T15:20:52.556Z,3.00
2017-08-02T15:23:19.992Z,3.13
2017-08-02T15:25:48.212Z,3.07
2017-08-02T15:28:15.647Z,3.37
2017-08-02T15:30:43.099Z,2.90
2017-08-02T15:33:10.558Z,3.80
2017-08-02T15:35:38.006Z,3.43
2017-08-02T15:38:05.474Z,3.43
2017-08-02T15:40:32.900Z,4.03
2017-08-02T15:43:00.374Z,3.33
2017-08-02T15:45:27.843Z,3.87
2017-08-02T15:47:55.299Z,3.00
2017-08-02T15:50:22.772Z,3.10
2017-08-02T15:52:50.227Z,4.10
2017-08-02T15:55:17.680Z,3.40
2017-08-02T15:57:45.114Z,3.13
2017-08-02T16:00:12.566Z,3.00
2017-08-02T16:02:40.028Z,3.73
2017-08-02T16:05:07.504Z,3.40
2017-08-02T16:07:34.951Z,3.90
2017-08-02T16:10:02.380Z,3.70
2017-08-02T16:12:29.846Z,3.03
2017-08-02T16:14:57.309Z,2.97
2017-08-02T16:17:24.773Z,3.00
2017-08-02T16:19:52.243Z,3.20
2017-08-02T16:22:19.687Z,3.10
2017-08-02T16:24:47.143Z,2.70
2017-08-02T16:27:14.591Z,3.03
2017-08-02T16:29:42.040Z,3.20
2017-08-02T16:32:09.569Z,2.70
2017-08-02T16:34:37.031Z,3.47
2017-08-02T16:37:04.474Z,3.03
2017-08-02T16:39:31.920Z,3.10
2017-08-02T16:41:59.389Z,2.83
2017-08-02T16:44:26.830Z,2.90
2017-08-02T16:46:54.286Z,2.83
2017-08-02T16:49:21.747Z,5.17
2017-08-02T16:51:49.224Z,3.83
2017-08-02T16:54:16.686Z,3.50
2017-08-02T16:56:44.120Z,3.10
2017-08-02T16:59:11.576Z,3.27
2017-08-02T17:01:39.031Z,2.93
2017-08-02T17:04:06.489Z,2.90
2017-08-02T17:06:34.439Z,3.00
2017-08-02T17:09:01.944Z,3.50
2017-08-02T17:11:30.161Z,3.00
2017-08-02T17:13:57.596Z,2.97
2017-08-02T17:16:25.047Z,2.70
2017-08-02T17:18:52.507Z,3.60
2017-08-02T17:21:19.948Z,2.63
2017-08-02T17:23:47.384Z,3.37
2017-08-02T17:26:15.620Z,3.23
2017-08-02T17:28:43.049Z,2.73
2017-08-02T17:31:10.515Z,3.07
2017-08-02T17:33:37.941Z,3.30
2017-08-02T17:36:05.376Z,3.67
2017-08-02T17:38:33.597Z,2.90
2017-08-02T17:41:01.033Z,3.00
2017-08-02T17:43:28.511Z,3.00
2017-08-02T17:45:55.948Z,3.70
2017-08-02T17:48:23.399Z,3.00
2017-08-02T17:50:50.837Z,2.50
2017-08-02T17:53:18.314Z,3.00
2017-08-02T17:55:45.784Z,3.70
2017-08-02T17:58:13.220Z,3.50
2017-08-02T18:00:41.672Z,3.50
2017-08-02T18:03:09.112Z,3.33
2017-08-02T18:05:36.552Z,3.23
2017-08-02T18:08:04.824Z,3.23
2017-08-02T18:10:33.041Z,3.50
2017-08-02T18:13:00.474Z,3.67
2017-08-02T18:15:27.971Z,3.37
2017-08-02T18:17:55.436Z,2.80
2017-08-02T18:20:22.991Z,3.90
2017-08-02T18:22:50.460Z,2.93
2017-08-02T18:25:17.894Z,3.23
2017-08-02T18:27:45.360Z,3.00
2017-08-02T18:30:12.807Z,3.13
2017-08-02T18:32:40.242Z,3.30
2017-08-02T18:35:07.695Z,3.43
2017-08-02T18:37:35.139Z,2.73
2017-08-02T18:40:02.622Z,3.47
2017-08-02T18:42:30.153Z,3.30
2017-08-02T18:44:58.070Z,3.13
2017-08-02T18:47:26.332Z,3.30
2017-08-02T18:49:54.539Z,3.53
2017-08-02T18:52:21.992Z,3.03
2017-08-02T18:54:49.428Z,3.70
2017-08-02T18:57:16.892Z,3.60
2017-08-02T18:59:44.338Z,3.70
2017-08-02T19:02:11.772Z,3.90
2017-08-02T19:04:40.016Z,3.70
2017-08-02T19:07:07.449Z,3.83
2017-08-02T19:09:34.936Z,4.70
2017-08-02T19:12:02.432Z,3.90
2017-08-02T19:14:29.877Z,3.90
2017-08-02T19:16:58.142Z,4.27
2017-08-02T19:19:26.370Z,6.13
2017-08-02T19:21:53.919Z,5.50
2017-08-02T19:24:21.467Z,4.53
2017-08-02T19:26:48.999Z,4.33
2017-08-02T19:29:16.625Z,5.40
2017-08-02T19:31:44.232Z,4.40
2017-08-02T19:34:11.777Z,4.73
2017-08-02T19:36:39.634Z,3.90
2017-08-02T19:39:07.246Z,4.40
2017-08-02T19:41:34.925Z,4.47
2017-08-02T19:44:03.363Z,4.43
2017-08-02T19:46:30.896Z,4.60
2017-08-02T19:48:58.535Z,4.90
2017-08-02T19:51:26.215Z,4.17
2017-08-02T19:53:53.736Z,4.40
2017-08-02T19:56:22.037Z,4.37
2017-08-02T19:58:49.534Z,4.27
2017-08-02T20:01:17.025Z,5.00
2017-08-02T20:03:44.480Z,4.57
2017-08-02T20:06:11.947Z,5.40
2017-08-02T20:08:39.388Z,5.57
2017-08-02T20:11:07.605Z,4.73
2017-08-02T20:13:35.042Z,4.80
2017-08-02T20:16:02.516Z,5.17
2017-08-02T20:18:29.967Z,4.93
2017-08-02T20:20:57.400Z,5.53
2017-08-02T20:23:24.867Z,5.20
2017-08-02T20:25:52.305Z,5.60
2017-08-02T20:28:19.763Z,5.63
2017-08-02T20:30:47.220Z,5.70
2017-08-02T20:33:14.663Z,5.30
2017-08-02T20:35:42.147Z,5.80
2017-08-02T20:38:09.614Z,5.70
2017-08-02T20:40:37.557Z,6.23
2017-08-02T20:43:05.026Z,6.20
2017-08-02T20:45:32.502Z,6.63
2017-08-02T20:47:59.965Z,5.50
2017-08-02T20:50:28.172Z,6.93
2017-08-02T20:52:55.613Z,6.70
2017-08-02T20:55:23.077Z,6.70
2017-08-02T20:57:50.552Z,7.50
2017-08-02T21:00:18.010Z,6.43
2017-08-02T21:02:45.457Z,7.20
2017-08-02T21:05:12.985Z,6.87
2017-08-02T21:07:41.272Z,6.90
2017-08-02T21:13:03.588Z,7.33
2017-08-02T21:43:15.298Z,7.10
2017-08-02T21:55:04.721Z,7.17
2017-08-02T22:05:56.127Z,6.40
2017-08-02T22:08:24.348Z,7.67
2017-08-02T22:10:51.817Z,6.60
2017-08-02T22:13:19.284Z,7.93
2017-08-02T22:15:46.762Z,7.07
2017-08-02T22:18:14.201Z,7.23
2017-08-02T22:20:41.718Z,7.43
2017-08-02T22:23:09.180Z,7.10
2017-08-02T22:25:36.638Z,8.07
2017-08-02T22:28:04.852Z,7.63
2017-08-02T22:30:32.292Z,8.00
2017-08-02T22:32:59.748Z,7.03
2017-08-02T22:35:27.203Z,7.83
2017-08-02T22:37:54.672Z,8.20
2017-08-02T22:40:22.142Z,7.37
2017-08-02T22:42:49.580Z,7.13
2017-08-02T22:45:17.820Z,8.23
2017-08-02T22:47:45.301Z,7.43
2017-08-02T22:50:12.734Z,7.80
2017-08-02T22:52:40.269Z,8.30
2017-08-02T22:55:07.808Z,8.63
2017-08-02T22:57:35.276Z,7.90
2017-08-02T23:00:02.752Z,7.40
2017-08-02T23:02:30.206Z,7.00
2017-08-02T23:04:58.444Z,7.20
2017-08-02T23:07:25.905Z,8.00
2017-08-02T23:09:53.358Z,8.50
2017-08-02T23:12:20.830Z,7.60
2017-08-02T23:14:48.262Z,7.80
2017-08-02T23:17:15.733Z,9.27
2017-08-02T23:19:43.185Z,8.27
2017-08-02T23:22:10.617Z,8.73
2017-08-02T23:24:38.083Z,8.97
2017-08-02T23:27:06.315Z,8.53
2017-08-02T23:29:33.791Z,9.03
2017-08-02T23:32:01.262Z,9.13
2017-08-02T23:34:28.714Z,8.43
2017-08-02T23:36:56.929Z,7.63
2017-08-02T23:39:24.393Z,8.93
2017-08-02T23:41:51.888Z,8.70
2017-08-02T23:44:19.350Z,8.77
2017-08-02T23:46:46.777Z,8.73
2017-08-02T23:49:14.279Z,8.43
2017-08-02T23:51:41.737Z,8.10
2017-08-02T23:54:09.168Z,8.83
2017-08-02T23:56:36.623Z,8.47
2017-08-02T23:59:04.063Z,8.20
